sensor_id;sensor_type;location;lat;lon;timestamp;P1;durP1;ratioP1;P2;durP2;ratioP2
22017;SDS011;11173;51.050;7.108;2023-07-31T00:02:36;0.80;;;0.80;;
22017;SDS011;11173;51.050;7.108;2023-07-31T00:12:37;1.35;;;0.80;;
22017;SDS011;11173;51.050;7.108;2023-07-31T00:22:43;0.85;;;0.80;;
22017;SDS011;11173;51.050;7.108;2023-07-31T00:32:43;4.65;;;1.92;;
22017;SDS011;11173;51.050;7.108;2023-07-31T00:42:43;1.30;;;1.20;;
22017;SDS011;11173;51.050;7.108;2023-07-31T00:52:44;1.40;;;1.17;;
22017;SDS011;11173;51.050;7.108;2023-07-31T01:02:44;1.95;;;1.48;;
22017;SDS011;11173;51.050;7.108;2023-07-31T01:12:45;2.22;;;1.27;;
22017;SDS011;11173;51.050;7.108;2023-07-31T01:33:20;3.00;;;1.70;;
22017;SDS011;11173;51.050;7.108;2023-07-31T01:43:21;2.45;;;1.70;;
22017;SDS011;11173;51.050;7.108;2023-07-31T01:53:21;3.40;;;1.65;;
22017;SDS011;11173;51.050;7.108;2023-07-31T02:03:21;3.08;;;1.90;;
22017;SDS011;11173;51.050;7.108;2023-07-31T02:13:22;3.85;;;1.67;;
22017;SDS011;11173;51.050;7.108;2023-07-31T02:23:22;1.90;;;1.08;;
22017;SDS011;11173;51.050;7.108;2023-07-31T02:33:23;1.27;;;0.95;;
22017;SDS011;11173;51.050;7.108;2023-07-31T02:43:23;1.42;;;1.10;;
22017;SDS011;11173;51.050;7.108;2023-07-31T02:53:23;3.38;;;1.42;;
22017;SDS011;11173;51.050;7.108;2023-07-31T03:03:24;1.55;;;1.00;;
22017;SDS011;11173;51.050;7.108;2023-07-31T03:13:24;1.35;;;1.10;;
22017;SDS011;11173;51.050;7.108;2023-07-31T03:23:27;1.58;;;1.27;;
22017;SDS011;11173;51.050;7.108;2023-07-31T03:33:28;2.10;;;1.10;;
22017;SDS011;11173;51.050;7.108;2023-07-31T03:43:28;2.10;;;1.15;;
22017;SDS011;11173;51.050;7.108;2023-07-31T03:53:29;2.27;;;1.17;;
22017;SDS011;11173;51.050;7.108;2023-07-31T04:03:29;1.50;;;1.20;;
22017;SDS011;11173;51.050;7.108;2023-07-31T04:13:30;2.00;;;1.70;;
22017;SDS011;11173;51.050;7.108;2023-07-31T04:23:30;2.60;;;1.77;;
22017;SDS011;11173;51.050;7.108;2023-07-31T04:33:30;1.30;;;1.17;;
22017;SDS011;11173;51.050;7.108;2023-07-31T04:43:31;1.23;;;1.00;;
22017;SDS011;11173;51.050;7.108;2023-07-31T04:53:31;1.10;;;1.00;;
22017;SDS011;11173;51.050;7.108;2023-07-31T05:03:31;0.77;;;0.70;;
22017;SDS011;11173;51.050;7.108;2023-07-31T05:13:32;0.93;;;0.55;;
22017;SDS011;11173;51.050;7.108;2023-07-31T05:23:32;0.65;;;0.55;;
22017;SDS011;11173;51.050;7.108;2023-07-31T05:33:33;0.73;;;0.73;;
22017;SDS011;11173;51.050;7.108;2023-07-31T05:43:33;0.40;;;0.40;;
22017;SDS011;11173;51.050;7.108;2023-07-31T05:53:33;1.90;;;1.10;;
22017;SDS011;11173;51.050;7.108;2023-07-31T06:03:34;1.00;;;0.50;;
22017;SDS011;11173;51.050;7.108;2023-07-31T06:13:35;0.50;;;0.50;;
22017;SDS011;11173;51.050;7.108;2023-07-31T06:23:35;0.50;;;0.50;;
22017;SDS011;11173;51.050;7.108;2023-07-31T06:33:35;0.70;;;0.60;;
22017;SDS011;11173;51.050;7.108;2023-07-31T06:43:36;0.40;;;0.40;;
22017;SDS011;11173;51.050;7.108;2023-07-31T06:53:37;0.40;;;0.40;;
22017;SDS011;11173;51.050;7.108;2023-07-31T07:03:37;0.40;;;0.30;;
22017;SDS011;11173;51.050;7.108;2023-07-31T07:13:37;0.80;;;0.47;;
22017;SDS011;11173;51.050;7.108;2023-07-31T07:23:38;0.77;;;0.32;;
22017;SDS011;11173;51.050;7.108;2023-07-31T07:33:38;0.52;;;0.30;;
22017;SDS011;11173;51.050;7.108;2023-07-31T07:43:39;0.30;;;0.30;;
22017;SDS011;11173;51.050;7.108;2023-07-31T07:53:39;0.30;;;0.30;;
22017;SDS011;11173;51.050;7.108;2023-07-31T08:03:39;0.40;;;0.40;;
22017;SDS011;11173;51.050;7.108;2023-07-31T08:13:40;0.43;;;0.43;;
22017;SDS011;11173;51.050;7.108;2023-07-31T08:23:40;1.05;;;0.90;;
22017;SDS011;11173;51.050;7.108;2023-07-31T08:33:40;1.17;;;1.08;;
22017;SDS011;11173;51.050;7.108;2023-07-31T08:43:41;0.40;;;0.40;;
22017;SDS011;11173;51.050;7.108;2023-07-31T08:53:42;0.40;;;0.40;;
22017;SDS011;11173;51.050;7.108;2023-07-31T09:03:42;0.30;;;0.30;;
22017;SDS011;11173;51.050;7.108;2023-07-31T09:13:45;0.10;;;0.10;;
22017;SDS011;11173;51.050;7.108;2023-07-31T09:23:47;0.10;;;0.10;;
22017;SDS011;11173;51.050;7.108;2023-07-31T09:33:54;0.40;;;0.30;;
22017;SDS011;11173;51.050;7.108;2023-07-31T09:43:56;0.30;;;0.30;;
22017;SDS011;11173;51.050;7.108;2023-07-31T09:53:56;0.40;;;0.30;;
22017;SDS011;11173;51.050;7.108;2023-07-31T10:03:57;0.20;;;0.20;;
22017;SDS011;11173;51.050;7.108;2023-07-31T10:13:58;0.13;;;0.10;;
22017;SDS011;11173;51.050;7.108;2023-07-31T10:23:59;0.10;;;0.10;;
22017;SDS011;11173;51.050;7.108;2023-07-31T10:34:00;0.15;;;0.13;;
22017;SDS011;11173;51.050;7.108;2023-07-31T10:44:03;0.20;;;0.20;;
22017;SDS011;11173;51.050;7.108;2023-07-31T10:54:12;0.20;;;0.20;;
22017;SDS011;11173;51.050;7.108;2023-07-31T11:04:15;0.30;;;0.30;;
22017;SDS011;11173;51.050;7.108;2023-07-31T11:14:23;0.30;;;0.30;;
22017;SDS011;11173;51.050;7.108;2023-07-31T11:24:23;0.63;;;0.40;;
22017;SDS011;11173;51.050;7.108;2023-07-31T11:34:24;0.50;;;0.43;;
22017;SDS011;11173;51.050;7.108;2023-07-31T11:44:25;0.90;;;0.30;;
22017;SDS011;11173;51.050;7.108;2023-07-31T11:54:25;0.45;;;0.20;;
22017;SDS011;11173;51.050;7.108;2023-07-31T12:04:26;0.10;;;0.10;;
22017;SDS011;11173;51.050;7.108;2023-07-31T12:14:27;0.15;;;0.15;;
22017;SDS011;11173;51.050;7.108;2023-07-31T12:24:31;0.25;;;0.25;;
22017;SDS011;11173;51.050;7.108;2023-07-31T12:34:35;0.63;;;0.35;;
22017;SDS011;11173;51.050;7.108;2023-07-31T12:44:42;0.40;;;0.40;;
22017;SDS011;11173;51.050;7.108;2023-07-31T12:54:42;0.68;;;0.68;;
22017;SDS011;11173;51.050;7.108;2023-07-31T13:04:43;0.70;;;0.70;;
22017;SDS011;11173;51.050;7.108;2023-07-31T13:14:43;0.80;;;0.80;;
22017;SDS011;11173;51.050;7.108;2023-07-31T13:24:44;0.90;;;0.70;;
22017;SDS011;11173;51.050;7.108;2023-07-31T13:34:44;1.48;;;0.98;;
22017;SDS011;11173;51.050;7.108;2023-07-31T13:44:44;0.75;;;0.75;;
22017;SDS011;11173;51.050;7.108;2023-07-31T13:54:45;0.60;;;0.60;;
22017;SDS011;11173;51.050;7.108;2023-07-31T14:04:45;0.60;;;0.60;;
22017;SDS011;11173;51.050;7.108;2023-07-31T14:14:45;0.60;;;0.60;;
22017;SDS011;11173;51.050;7.108;2023-07-31T14:24:46;0.88;;;0.63;;
22017;SDS011;11173;51.050;7.108;2023-07-31T14:34:46;0.43;;;0.43;;
22017;SDS011;11173;51.050;7.108;2023-07-31T14:44:47;0.68;;;0.68;;
22017;SDS011;11173;51.050;7.108;2023-07-31T14:54:47;0.50;;;0.40;;
22017;SDS011;11173;51.050;7.108;2023-07-31T15:04:47;0.70;;;0.70;;
22017;SDS011;11173;51.050;7.108;2023-07-31T15:14:48;0.50;;;0.50;;
22017;SDS011;11173;51.050;7.108;2023-07-31T15:24:49;0.70;;;0.70;;
22017;SDS011;11173;51.050;7.108;2023-07-31T15:34:49;1.10;;;1.00;;
22017;SDS011;11173;51.050;7.108;2023-07-31T15:44:49;1.20;;;1.10;;
22017;SDS011;11173;51.050;7.108;2023-07-31T15:54:50;1.40;;;1.17;;
22017;SDS011;11173;51.050;7.108;2023-07-31T16:04:50;1.17;;;1.10;;
22017;SDS011;11173;51.050;7.108;2023-07-31T16:14:50;0.95;;;0.95;;
22017;SDS011;11173;51.050;7.108;2023-07-31T16:24:51;1.05;;;0.95;;
22017;SDS011;11173;51.050;7.108;2023-07-31T16:34:51;0.70;;;0.70;;
22017;SDS011;11173;51.050;7.108;2023-07-31T16:44:51;0.40;;;0.40;;
22017;SDS011;11173;51.050;7.108;2023-07-31T16:54:52;0.52;;;0.52;;
22017;SDS011;11173;51.050;7.108;2023-07-31T17:04:52;0.73;;;0.73;;
22017;SDS011;11173;51.050;7.108;2023-07-31T17:14:52;0.50;;;0.50;;
22017;SDS011;11173;51.050;7.108;2023-07-31T17:24:53;0.13;;;0.13;;
22017;SDS011;11173;51.050;7.108;2023-07-31T17:34:53;0.13;;;0.13;;
22017;SDS011;11173;51.050;7.108;2023-07-31T17:44:54;0.20;;;0.20;;
22017;SDS011;11173;51.050;7.108;2023-07-31T17:54:54;0.40;;;0.40;;
22017;SDS011;11173;51.050;7.108;2023-07-31T18:04:54;0.65;;;0.65;;
22017;SDS011;11173;51.050;7.108;2023-07-31T18:14:55;0.40;;;0.40;;
22017;SDS011;11173;51.050;7.108;2023-07-31T18:24:55;0.55;;;0.40;;
22017;SDS011;11173;51.050;7.108;2023-07-31T18:34:56;0.40;;;0.40;;
22017;SDS011;11173;51.050;7.108;2023-07-31T18:44:56;0.40;;;0.40;;
22017;SDS011;11173;51.050;7.108;2023-07-31T18:54:56;0.30;;;0.30;;
22017;SDS011;11173;51.050;7.108;2023-07-31T19:04:57;0.20;;;0.20;;
22017;SDS011;11173;51.050;7.108;2023-07-31T19:14:57;0.20;;;0.20;;
22017;SDS011;11173;51.050;7.108;2023-07-31T19:24:58;0.03;;;0.03;;
22017;SDS011;11173;51.050;7.108;2023-07-31T19:34:58;0.20;;;0.20;;
22017;SDS011;11173;51.050;7.108;2023-07-31T19:44:58;0.30;;;0.10;;
22017;SDS011;11173;51.050;7.108;2023-07-31T19:54:59;0.70;;;0.30;;
22017;SDS011;11173;51.050;7.108;2023-07-31T20:04:59;0.10;;;0.10;;
22017;SDS011;11173;51.050;7.108;2023-07-31T20:15:00;0.10;;;0.10;;
22017;SDS011;11173;51.050;7.108;2023-07-31T20:25:00;0.22;;;0.22;;
22017;SDS011;11173;51.050;7.108;2023-07-31T20:35:01;0.10;;;0.10;;
22017;SDS011;11173;51.050;7.108;2023-07-31T20:45:01;0.00;;;0.00;;
22017;SDS011;11173;51.050;7.108;2023-07-31T20:55:02;0.17;;;0.03;;
22017;SDS011;11173;51.050;7.108;2023-07-31T21:05:02;0.00;;;0.00;;
22017;SDS011;11173;51.050;7.108;2023-07-31T21:15:03;0.00;;;0.00;;
22017;SDS011;11173;51.050;7.108;2023-07-31T21:25:04;0.00;;;0.00;;
22017;SDS011;11173;51.050;7.108;2023-07-31T21:35:04;0.10;;;0.10;;
22017;SDS011;11173;51.050;7.108;2023-07-31T21:45:05;0.20;;;0.13;;
22017;SDS011;11173;51.050;7.108;2023-07-31T21:55:06;0.10;;;0.10;;
22017;SDS011;11173;51.050;7.108;2023-07-31T22:05:07;0.28;;;0.20;;
22017;SDS011;11173;51.050;7.108;2023-07-31T22:15:07;0.20;;;0.20;;
22017;SDS011;11173;51.050;7.108;2023-07-31T22:25:08;0.10;;;0.10;;
22017;SDS011;11173;51.050;7.108;2023-07-31T22:35:09;0.20;;;0.20;;
22017;SDS011;11173;51.050;7.108;2023-07-31T22:45:09;0.40;;;0.30;;
22017;SDS011;11173;51.050;7.108;2023-07-31T22:55:10;0.10;;;0.10;;
22017;SDS011;11173;51.050;7.108;2023-07-31T23:05:10;0.20;;;0.20;;
22017;SDS011;11173;51.050;7.108;2023-07-31T23:15:11;0.10;;;0.10;;
22017;SDS011;11173;51.050;7.108;2023-07-31T23:25:11;0.00;;;0.00;;
22017;SDS011;11173;51.050;7.108;2023-07-31T23:35:11;0.00;;;0.00;;
22017;SDS011;11173;51.050;7.108;2023-07-31T23:45:12;0.20;;;0.20;;
22017;SDS011;11173;51.050;7.108;2023-07-31T23:55:14;0.32;;;0.28;;
